Time;durP1;ratioP1;P1;durP2;ratioP2;P2;SDS_P1;SDS_P2;PMS_P1;PMS_P2;Temp;Humidity;BMP_temperature;BMP_pressure;BME280_temperature;BME280_humidity;BME280_pressure;Samples;Min_cycle;Max_cycle;Signal;HPM_P1;HPM_P2
2022/12/18 00:00:22;;;;;;;62.80;23.70;;;;;;;-6.44;95.76;97911.46;105280;1286;22478;-78
2022/12/18 00:03:14;;;;;;;66.20;25.90;;;;;;;-6.40;95.62;97918.70;105287;1306;22512;-78
2022/12/18 00:05:49;;;;;;;83.20;31.30;;;;;;;-6.39;95.61;97924.20;105278;1290;22623;-78
2022/12/18 00:08:18;;;;;;;68.50;27.90;;;;;;;-6.37;95.73;97925.92;104519;1306;1298350;-78
2022/12/18 00:10:47;;;;;;;76.40;30.50;;;;;;;-6.38;95.65;97929.77;105446;1305;22470;-78
2022/12/18 00:13:15;;;;;;;64.40;27.70;;;;;;;-6.39;95.44;97933.33;105536;1303;25248;-78
2022/12/18 00:15:44;;;;;;;55.60;23.40;;;;;;;-6.40;95.29;97927.98;105474;1292;24275;-78
2022/12/18 00:18:12;;;;;;;67.90;26.30;;;;;;;-6.41;95.52;97933.91;105514;1290;22466;-78
2022/12/18 00:20:41;;;;;;;66.70;27.40;;;;;;;-6.44;95.19;97941.91;105527;1302;22479;-78
2022/12/18 00:23:10;;;;;;;59.70;23.70;;;;;;;-6.46;95.04;97944.48;105492;1306;22467;-78
2022/12/18 00:25:39;;;;;;;60.80;25.00;;;;;;;-6.48;94.93;97940.89;105442;1305;25089;-78
2022/12/18 00:28:08;;;;;;;51.40;23.10;;;;;;;-6.49;94.93;97949.60;105528;1306;22472;-78
2022/12/18 00:30:37;;;;;;;50.20;20.10;;;;;;;-6.52;94.68;97946.87;105559;1297;25279;-78
2022/12/18 00:33:06;;;;;;;63.40;24.80;;;;;;;-6.54;94.74;97949.67;105500;1299;32106;-78
2022/12/18 00:35:35;;;;;;;70.10;25.40;;;;;;;-6.59;94.42;97952.13;105513;1296;23225;-78
2022/12/18 00:38:06;;;;;;;54.30;22.20;;;;;;;-6.62;94.39;97956.06;105511;1306;22513;-78
2022/12/18 00:40:34;;;;;;;68.20;28.30;;;;;;;-6.64;94.25;97965.11;105523;1304;22569;-78
2022/12/18 00:43:03;;;;;;;62.70;24.90;;;;;;;-6.66;94.22;97966.77;105508;1296;22477;-78
2022/12/18 00:45:32;;;;;;;59.00;20.80;;;;;;;-6.68;94.27;97973.58;105483;1294;23104;-78
2022/12/18 00:48:01;;;;;;;57.20;21.90;;;;;;;-6.68;94.14;97975.85;105550;1303;22514;-78
2022/12/18 00:50:29;;;;;;;67.60;26.50;;;;;;;-6.70;94.09;97980.12;105535;1296;22462;-78
2022/12/18 00:53:00;;;;;;;64.30;26.90;;;;;;;-6.71;94.04;97980.40;105502;1284;22477;-78
2022/12/18 00:55:28;;;;;;;57.90;21.10;;;;;;;-6.71;94.15;97985.71;105380;1287;24284;-78
2022/12/18 00:57:57;;;;;;;68.90;27.60;;;;;;;-6.70;93.93;97994.27;105326;1296;22482;-78
2022/12/18 01:00:25;;;;;;;67.90;25.70;;;;;;;-6.70;94.02;97998.55;105274;1304;22638;-78
2022/12/18 01:02:54;;;;;;;54.00;23.10;;;;;;;-6.71;94.01;97999.48;105295;1303;25388;-78
2022/12/18 01:05:22;;;;;;;68.50;27.60;;;;;;;-6.70;93.61;97998.90;105281;1290;22464;-78
2022/12/18 01:07:50;;;;;;;66.00;25.80;;;;;;;-6.68;93.85;98002.83;105270;1290;23752;-78
2022/12/18 01:10:20;;;;;;;42.90;16.70;;;;;;;-6.66;93.65;98002.14;105302;1302;22481;-78
2022/12/18 01:12:48;;;;;;;47.50;17.10;;;;;;;-6.69;93.40;98002.73;105262;1293;26020;-78
2022/12/18 01:15:17;;;;;;;53.60;21.70;;;;;;;-6.70;93.26;98008.84;105250;1304;25366;-78
2022/12/18 01:17:46;;;;;;;40.60;16.50;;;;;;;-6.69;93.48;98009.63;105267;1299;22600;-78
2022/12/18 01:20:14;;;;;;;49.50;20.40;;;;;;;-6.67;93.62;98015.32;105511;1304;22992;-78
2022/12/18 01:22:43;;;;;;;54.90;22.60;;;;;;;-6.69;93.25;98016.48;105491;1304;23795;-78
2022/12/18 01:25:11;;;;;;;62.90;24.60;;;;;;;-6.69;93.36;98021.18;105446;1294;23979;-78
2022/12/18 01:27:39;;;;;;;62.40;23.70;;;;;;;-6.70;93.51;98023.79;105522;1304;22511;-78
2022/12/18 01:30:15;;;;;;;57.30;24.10;;;;;;;-6.70;93.37;98022.98;105510;1300;22461;-78
2022/12/18 01:32:43;;;;;;;60.40;25.10;;;;;;;-6.67;93.56;98023.49;105497;1304;32616;-78
2022/12/18 01:35:11;;;;;;;58.70;23.60;;;;;;;-6.67;93.54;98024.58;105510;1289;25918;-78
2022/12/18 01:37:40;;;;;;;56.80;22.20;;;;;;;-6.71;93.44;98026.96;105509;1284;25380;-78
2022/12/18 01:40:10;;;;;;;62.60;24.30;;;;;;;-6.73;93.33;98030.58;105580;1296;22468;-78
2022/12/18 01:42:39;;;;;;;56.90;23.30;;;;;;;-6.74;93.28;98033.84;105515;1303;22477;-78
2022/12/18 01:45:24;;;;;;;51.00;21.70;;;;;;;-6.75;93.30;98034.55;105489;1297;27111;-78
2022/12/18 01:47:55;;;;;;;52.60;20.20;;;;;;;-6.76;93.16;98033.48;105509;1303;22535;-78
2022/12/18 01:50:28;;;;;;;52.70;20.10;;;;;;;-6.78;93.29;98034.49;105499;1303;22474;-78
2022/12/18 01:53:00;;;;;;;48.00;18.40;;;;;;;-6.79;92.71;98037.66;105529;1295;22480;-78
2022/12/18 01:55:32;;;;;;;53.40;22.40;;;;;;;-6.81;92.93;98040.95;105507;1302;24177;-77
2022/12/18 01:58:01;;;;;;;53.50;21.90;;;;;;;-6.86;92.73;98049.64;105539;1277;22504;-78
2022/12/18 02:00:31;;;;;;;47.80;20.20;;;;;;;-6.89;92.58;98059.36;105520;1279;22466;-78
2022/12/18 02:02:59;;;;;;;54.30;21.90;;;;;;;-6.92;92.77;98058.24;105478;1304;22710;-78
2022/12/18 02:05:44;;;;;;;53.00;21.80;;;;;;;-6.94;92.73;98062.83;105342;1303;27804;-78
2022/12/18 02:08:21;;;;;;;47.90;20.60;;;;;;;-6.88;92.98;98067.02;105487;1289;22507;-78
2022/12/18 02:11:04;;;;;;;46.10;21.30;;;;;;;-6.81;93.30;98069.19;105379;1303;22622;-78
2022/12/18 02:13:41;;;;;;;55.30;22.20;;;;;;;-6.81;93.38;98074.96;105440;1293;25917;-78
2022/12/18 02:16:19;;;;;;;49.30;21.30;;;;;;;-6.74;93.39;98073.87;105663;1304;22560;-78
2022/12/18 02:18:51;;;;;;;47.00;20.60;;;;;;;-6.71;93.51;98076.00;105770;1303;22549;-78
2022/12/18 02:21:29;;;;;;;59.10;20.90;;;;;;;-6.73;93.32;98078.90;105815;1304;22479;-78
2022/12/18 02:24:10;;;;;;;46.00;18.90;;;;;;;-6.77;93.08;98085.41;105755;1303;28233;-78
2022/12/18 02:26:44;;;;;;;46.20;19.20;;;;;;;-6.82;93.05;98090.84;105773;1304;22467;-78
2022/12/18 02:29:17;;;;;;;48.20;20.10;;;;;;;-6.88;93.03;98094.17;105623;1289;24240;-78
2022/12/18 02:31:50;;;;;;;48.40;18.20;;;;;;;-6.97;92.86;98090.83;105803;1279;25609;-78
2022/12/18 02:34:22;;;;;;;44.00;18.40;;;;;;;-7.03;92.94;98093.77;105555;1304;22534;-78
2022/12/18 02:36:52;;;;;;;48.20;20.20;;;;;;;-7.07;93.10;98101.13;105551;1284;24240;-78
2022/12/18 02:39:22;;;;;;;41.10;17.10;;;;;;;-7.09;93.08;98102.29;105527;1288;22539;-78
2022/12/18 02:41:52;;;;;;;42.60;20.50;;;;;;;-7.08;92.97;98104.30;105481;1302;22465;-78
2022/12/18 02:44:21;;;;;;;51.20;20.80;;;;;;;-7.11;93.04;98110.59;105487;1297;22480;-78
2022/12/18 02:46:53;;;;;;;49.30;20.10;;;;;;;-7.14;93.10;98111.40;105539;1301;22527;-78
2022/12/18 02:49:36;;;;;;;48.70;17.00;;;;;;;-7.19;93.25;98113.67;105517;1290;22524;-78
2022/12/18 02:52:18;;;;;;;44.70;19.40;;;;;;;-7.26;93.14;98118.52;105552;1302;22926;-78
2022/12/18 02:55:08;;;;;;;52.40;19.80;;;;;;;-7.29;93.23;98116.02;105476;1303;28893;-78
2022/12/18 02:57:42;;;;;;;38.40;17.10;;;;;;;-7.25;93.61;98121.67;105504;1304;22523;-78
2022/12/18 03:00:16;;;;;;;46.20;18.40;;;;;;;-7.20;93.73;98126.05;105554;1302;22824;-78
2022/12/18 03:02:52;;;;;;;47.30;19.20;;;;;;;-7.18;93.75;98134.16;105518;1296;22489;-78
2022/12/18 03:05:25;;;;;;;43.90;17.90;;;;;;;-7.19;93.80;98136.83;105466;1303;27088;-78
2022/12/18 03:07:58;;;;;;;39.10;17.30;;;;;;;-7.19;93.70;98140.09;105510;1298;22475;-78
2022/12/18 03:10:29;;;;;;;39.00;16.70;;;;;;;-7.17;93.82;98143.42;105530;1303;22463;-78
2022/12/18 03:13:04;;;;;;;47.40;19.00;;;;;;;-7.15;93.98;98144.75;105513;1302;22757;-78
2022/12/18 03:15:37;;;;;;;44.30;19.50;;;;;;;-7.11;93.91;98142.36;105524;1283;24076;-78
2022/12/18 03:18:11;;;;;;;39.90;17.10;;;;;;;-7.06;94.01;98149.48;105480;1304;22462;-78
2022/12/18 03:20:42;;;;;;;39.80;17.50;;;;;;;-7.02;94.15;98153.45;105490;1304;22552;-78
2022/12/18 03:23:16;;;;;;;34.10;16.30;;;;;;;-6.97;94.09;98153.89;105487;1281;22898;-78
2022/12/18 03:25:47;;;;;;;42.60;16.60;;;;;;;-6.92;94.10;98158.96;105568;1304;27287;-78
2022/12/18 03:28:21;;;;;;;44.00;17.10;;;;;;;-6.92;93.84;98156.17;105809;1301;24329;-78
2022/12/18 03:30:55;;;;;;;39.00;17.90;;;;;;;-6.90;93.91;98156.21;105794;1304;22491;-78
2022/12/18 03:33:28;;;;;;;39.20;17.20;;;;;;;-6.86;93.91;98153.95;105694;1285;22561;-78
2022/12/18 03:36:03;;;;;;;39.50;17.40;;;;;;;-6.81;94.01;98159.07;105586;1288;23108;-78
2022/12/18 03:38:31;;;;;;;38.50;18.50;;;;;;;-6.76;94.01;98163.59;105732;1291;22486;-78
2022/12/18 03:41:05;;;;;;;38.60;17.40;;;;;;;-6.70;94.11;98161.73;105646;1303;22611;-78
2022/12/18 03:43:48;;;;;;;41.30;17.30;;;;;;;-6.68;94.18;98162.20;105790;1282;22470;-78
2022/12/18 03:46:27;;;;;;;42.70;18.50;;;;;;;-6.69;93.94;98173.64;105791;1286;25397;-78
2022/12/18 03:49:01;;;;;;;40.90;18.20;;;;;;;-6.69;93.68;98177.23;105830;1285;22501;-78
2022/12/18 03:51:40;;;;;;;40.50;16.80;;;;;;;-6.70;93.69;98179.95;105612;1303;22480;-78
2022/12/18 03:54:10;;;;;;;42.30;18.10;;;;;;;-6.72;93.70;98177.84;105739;1287;42706;-79
2022/12/18 03:56:51;;;;;;;34.80;16.20;;;;;;;-6.73;93.76;98181.58;105532;1301;22789;-78
2022/12/18 03:59:21;;;;;;;42.10;17.30;;;;;;;-6.71;93.83;98184.52;105562;1279;22568;-78
2022/12/18 04:01:53;;;;;;;40.20;17.50;;;;;;;-6.70;93.62;98189.73;105634;1286;25275;-79
2022/12/18 04:04:24;;;;;;;37.80;16.30;;;;;;;-6.69;93.56;98190.30;105791;1304;22465;-79
2022/12/18 04:06:53;;;;;;;38.30;16.50;;;;;;;-6.66;93.72;98188.02;105795;1279;22502;-79
2022/12/18 04:09:22;;;;;;;40.50;18.30;;;;;;;-6.64;93.62;98189.54;105765;1302;22474;-78
2022/12/18 04:11:52;;;;;;;37.90;17.20;;;;;;;-6.61;93.72;98192.04;105594;1288;22451;-79
2022/12/18 04:14:21;;;;;;;34.80;15.10;;;;;;;-6.58;93.78;98197.10;105672;1303;23968;-79
2022/12/18 04:16:49;;;;;;;30.90;15.20;;;;;;;-6.56;93.71;98199.55;105711;1303;22490;-79
2022/12/18 04:19:17;;;;;;;38.80;16.60;;;;;;;-6.56;93.49;98204.38;105732;1297;22489;-79
2022/12/18 04:21:46;;;;;;;42.10;18.20;;;;;;;-6.60;93.45;98204.69;105674;1301;25298;-79
2022/12/18 04:24:14;;;;;;;36.70;16.60;;;;;;;-6.63;93.31;98206.81;105596;1303;22478;-79
2022/12/18 04:26:42;;;;;;;37.30;15.70;;;;;;;-6.64;93.40;98216.14;105748;1278;24238;-79
2022/12/18 04:29:11;;;;;;;39.70;16.50;;;;;;;-6.63;93.44;98221.63;105767;1285;22546;-79
2022/12/18 04:31:39;;;;;;;36.10;16.20;;;;;;;-6.65;93.33;98223.64;105690;1303;22691;-78
2022/12/18 04:34:08;;;;;;;42.90;17.40;;;;;;;-6.67;93.23;98221.44;105656;1296;27081;-79
2022/12/18 04:36:36;;;;;;;36.30;14.30;;;;;;;-6.70;93.30;98221.13;105516;1297;25153;-79
2022/12/18 04:39:05;;;;;;;41.40;18.40;;;;;;;-6.72;93.30;98224.80;105513;1288;22455;-79
2022/12/18 04:41:33;;;;;;;32.60;12.70;;;;;;;-6.73;93.44;98225.55;105538;1302;22552;-79
2022/12/18 04:44:02;;;;;;;33.10;14.90;;;;;;;-6.74;93.25;98229.10;105511;1300;24878;-78
2022/12/18 04:46:30;;;;;;;46.70;17.70;;;;;;;-6.74;93.56;98233.04;105437;1297;23254;-79
2022/12/18 04:48:58;;;;;;;36.30;16.30;;;;;;;-6.73;93.57;98236.05;105445;1304;23090;-78
2022/12/18 04:51:27;;;;;;;43.60;17.90;;;;;;;-6.73;93.17;98235.89;105408;1298;25091;-78
2022/12/18 04:53:55;;;;;;;42.80;15.80;;;;;;;-6.72;93.35;98241.63;105758;1302;22503;-78
2022/12/18 04:56:24;;;;;;;39.70;16.60;;;;;;;-6.73;93.17;98245.83;105762;1304;22689;-78
2022/12/18 04:58:52;;;;;;;45.40;18.50;;;;;;;-6.73;93.23;98253.62;105770;1295;22601;-78
2022/12/18 05:01:20;;;;;;;30.40;11.00;;;;;;;-6.72;93.36;98255.27;105776;1304;22475;-79
2022/12/18 05:03:49;;;;;;;39.80;18.50;;;;;;;-6.72;93.09;98261.28;105726;1302;25335;-79
2022/12/18 05:06:17;;;;;;;40.80;16.20;;;;;;;-6.73;93.15;98263.59;105776;1304;22468;-78
2022/12/18 05:08:46;;;;;;;44.30;17.90;;;;;;;-6.74;93.21;98267.73;105787;1294;25398;-78
2022/12/18 05:11:16;;;;;;;47.40;19.20;;;;;;;-6.73;93.19;98267.30;105681;1292;24269;-78
2022/12/18 05:13:47;;;;;;;40.80;17.70;;;;;;;-6.72;93.39;98272.73;105716;1291;22503;-78
2022/12/18 05:16:16;;;;;;;48.10;18.20;;;;;;;-6.70;93.24;98273.06;105552;1278;22671;-78
2022/12/18 05:18:46;;;;;;;40.40;17.40;;;;;;;-6.69;93.32;98272.46;105758;1298;22469;-78
2022/12/18 05:21:15;;;;;;;47.30;19.90;;;;;;;-6.69;93.26;98272.55;105694;1288;22473;-78
2022/12/18 05:23:43;;;;;;;37.40;16.50;;;;;;;-6.71;93.21;98273.17;105679;1288;25537;-78
2022/12/18 05:26:17;;;;;;;39.50;16.00;;;;;;;-6.70;93.19;98273.77;105782;1295;22465;-79
2022/12/18 05:28:47;;;;;;;34.50;16.20;;;;;;;-6.68;93.37;98272.80;105774;1293;22492;-78
2022/12/18 05:31:16;;;;;;;44.10;19.40;;;;;;;-6.68;93.29;98273.55;105608;1289;22471;-78
2022/12/18 05:33:45;;;;;;;35.00;15.30;;;;;;;-6.66;93.16;98268.11;105620;1303;26666;-78
2022/12/18 05:36:14;;;;;;;39.50;17.20;;;;;;;-6.64;93.24;98271.58;105472;1286;22488;-78
2022/12/18 05:38:44;;;;;;;42.90;18.20;;;;;;;-6.64;93.21;98278.20;105509;1290;22486;-78
2022/12/18 05:41:14;;;;;;;38.20;16.60;;;;;;;-6.64;93.02;98282.41;105520;1288;22471;-78
2022/12/18 05:43:42;;;;;;;37.90;17.70;;;;;;;-6.64;93.18;98285.45;105509;1304;22507;-78
2022/12/18 05:46:16;;;;;;;40.70;17.00;;;;;;;-6.64;93.18;98287.85;105512;1288;22465;-78
2022/12/18 05:48:45;;;;;;;35.30;16.20;;;;;;;-6.63;93.01;98294.52;105539;1289;25912;-78
2022/12/18 05:51:15;;;;;;;29.40;12.90;;;;;;;-6.63;93.08;98299.65;105299;1281;22440;-78
2022/12/18 05:53:45;;;;;;;43.80;17.50;;;;;;;-6.63;93.07;98298.95;105236;1300;22714;-78
2022/12/18 05:56:18;;;;;;;38.20;17.40;;;;;;;-6.62;93.08;98297.35;105288;1302;22520;-78
2022/12/18 05:58:47;;;;;;;44.40;18.10;;;;;;;-6.62;93.11;98299.73;105337;1302;22484;-78
2022/12/18 06:01:18;;;;;;;35.10;16.20;;;;;;;-6.62;93.10;98304.91;105322;1302;22465;-78
2022/12/18 06:03:46;;;;;;;33.10;14.30;;;;;;;-6.61;93.24;98308.60;105270;1303;24229;-78
2022/12/18 06:06:19;;;;;;;39.20;16.60;;;;;;;-6.59;93.12;98310.70;105267;1301;22832;-78
2022/12/18 06:08:49;;;;;;;40.30;18.40;;;;;;;-6.58;93.08;98317.33;105313;1302;22473;-78
2022/12/18 06:11:20;;;;;;;36.70;15.20;;;;;;;-6.57;93.01;98316.07;105286;1302;22611;-78
2022/12/18 06:13:52;;;;;;;37.20;16.60;;;;;;;-6.57;93.18;98315.15;105489;1302;22472;-78
2022/12/18 06:16:22;;;;;;;44.80;18.20;;;;;;;-6.57;93.01;98320.02;105513;1282;23079;-78
2022/12/18 06:18:51;;;;;;;36.60;17.60;;;;;;;-6.57;92.87;98331.19;105502;1295;25308;-78
2022/12/18 06:21:20;;;;;;;40.10;17.30;;;;;;;-6.59;92.95;98330.43;105523;1302;22494;-78
2022/12/18 06:23:50;;;;;;;37.00;15.20;;;;;;;-6.58;92.89;98331.27;105454;1302;22550;-78
2022/12/18 06:26:20;;;;;;;45.30;17.40;;;;;;;-6.61;92.85;98334.71;105286;1281;22494;-78
2022/12/18 06:28:48;;;;;;;35.70;16.20;;;;;;;-6.65;92.97;98335.24;105434;1287;22491;-78
2022/12/18 06:31:17;;;;;;;40.70;16.00;;;;;;;-6.69;92.99;98338.48;105274;1295;22480;-78
2022/12/18 06:33:46;;;;;;;43.80;18.90;;;;;;;-6.69;92.94;98339.34;105220;1289;24131;-78
2022/12/18 06:36:15;;;;;;;25.00;11.60;;;;;;;-6.69;93.00;98343.65;105270;1303;23778;-78
2022/12/18 06:38:44;;;;;;;39.30;16.60;;;;;;;-6.70;92.75;98352.55;105337;1287;22475;-78
2022/12/18 06:41:16;;;;;;;39.10;17.60;;;;;;;-6.69;92.91;98352.80;105264;1281;24253;-78
2022/12/18 06:43:46;;;;;;;41.80;18.20;;;;;;;-6.70;92.91;98351.70;105285;1278;24156;-78
2022/12/18 06:46:16;;;;;;;31.60;13.00;;;;;;;-6.70;92.81;98355.77;105339;1296;22480;-78
2022/12/18 06:48:49;;;;;;;40.70;16.20;;;;;;;-6.70;92.94;98361.66;105296;1281;24397;-78
2022/12/18 06:51:19;;;;;;;24.60;11.40;;;;;;;-6.71;92.99;98362.80;105333;1296;22469;-78
2022/12/18 06:53:48;;;;;;;42.10;19.20;;;;;;;-6.74;93.19;98362.52;105268;1296;22957;-78
2022/12/18 06:56:17;;;;;;;37.30;15.10;;;;;;;-6.74;92.95;98365.96;105288;1295;22460;-78
2022/12/18 06:58:45;;;;;;;30.20;13.20;;;;;;;-6.75;93.00;98367.70;105308;1286;24254;-78
2022/12/18 07:01:14;;;;;;;27.40;12.70;;;;;;;-6.74;92.80;98376.12;105321;1288;22497;-78
2022/12/18 07:03:43;;;;;;;31.10;11.90;;;;;;;-6.74;92.77;98376.06;105299;1300;23833;-78
2022/12/18 07:06:17;;;;;;;34.90;16.80;;;;;;;-6.71;92.90;98378.24;105271;1302;25859;-78
2022/12/18 07:08:46;;;;;;;32.80;14.30;;;;;;;-6.70;92.80;98382.08;105346;1302;22529;-78
2022/12/18 07:11:16;;;;;;;38.00;15.00;;;;;;;-6.68;92.81;98383.80;105266;1302;22539;-78
2022/12/18 07:13:45;;;;;;;29.70;12.60;;;;;;;-6.65;92.83;98385.65;105255;1288;30099;-78
2022/12/18 07:16:15;;;;;;;41.80;15.30;;;;;;;-6.62;93.03;98393.14;105295;1288;27535;-78
2022/12/18 07:18:43;;;;;;;;;;;;;;;-6.61;92.52;98393.40;105292;1296;22428;-78
2022/12/18 07:21:17;;;;;;;37.40;15.50;;;;;;;-6.62;92.61;98393.46;105267;1303;22662;-78
2022/12/18 07:23:47;;;;;;;26.30;11.50;;;;;;;-6.62;92.61;98392.27;105262;1302;24687;-79
2022/12/18 07:26:19;;;;;;;34.10;15.50;;;;;;;-6.62;92.57;98401.40;105503;1302;23262;-78
2022/12/18 07:28:49;;;;;;;30.60;13.90;;;;;;;-6.61;92.48;98409.18;105565;1296;24352;-79
2022/12/18 07:31:21;;;;;;;39.10;17.50;;;;;;;-6.58;92.80;98415.15;105550;1300;22826;-78
2022/12/18 07:33:51;;;;;;;28.60;13.00;;;;;;;-6.55;92.70;98418.14;105504;1277;24398;-78
2022/12/18 07:36:20;;;;;;;39.90;18.10;;;;;;;-6.54;92.48;98422.44;105510;1302;25700;-78
2022/12/18 07:38:52;;;;;;;25.70;11.90;;;;;;;-6.55;92.55;98427.33;105550;1302;22698;-78
2022/12/18 07:41:24;;;;;;;40.20;17.50;;;;;;;-6.52;92.62;98428.80;105524;1295;22549;-78
2022/12/18 07:43:56;;;;;;;39.90;18.30;;;;;;;-6.53;92.33;98429.37;105486;1302;22936;-78
2022/12/18 07:46:26;;;;;;;30.90;12.50;;;;;;;-6.50;92.51;98431.04;105450;1297;22496;-78
2022/12/18 07:48:56;;;;;;;36.90;15.70;;;;;;;-6.49;92.43;98438.16;105533;1281;22502;-78
2022/12/18 07:51:27;;;;;;;42.80;20.20;;;;;;;-6.48;92.38;98438.77;105492;1296;22483;-78
2022/12/18 07:53:56;;;;;;;42.70;19.30;;;;;;;-6.46;92.54;98435.14;105552;1302;22509;-78
2022/12/18 07:56:26;;;;;;;35.50;17.10;;;;;;;-6.44;92.53;98432.09;105546;1298;22455;-78
2022/12/18 07:58:57;;;;;;;31.00;13.50;;;;;;;-6.41;92.28;98435.64;105525;1302;22806;-78
2022/12/18 08:01:30;;;;;;;31.90;14.10;;;;;;;-6.37;92.18;98437.52;105539;1302;23084;-78
2022/12/18 08:04:00;;;;;;;25.10;11.00;;;;;;;-6.34;92.37;98439.64;105234;1294;34266;-78
2022/12/18 08:06:30;;;;;;;38.20;16.10;;;;;;;-6.30;92.12;98438.13;105296;1300;22620;-78
2022/12/18 08:09:01;;;;;;;37.50;17.30;;;;;;;-6.25;92.42;98439.42;105274;1287;22510;-79
2022/12/18 08:11:31;;;;;;;36.10;17.60;;;;;;;-6.20;92.35;98443.14;105306;1292;22489;-78
2022/12/18 08:14:00;;;;;;;37.70;18.10;;;;;;;-6.17;92.27;98447.91;105277;1302;22489;-78
2022/12/18 08:16:30;;;;;;;33.20;15.70;;;;;;;-6.13;92.30;98446.48;105294;1287;24964;-78
2022/12/18 08:19:00;;;;;;;38.50;19.00;;;;;;;-6.05;92.23;98444.84;105243;1303;22493;-78
2022/12/18 08:21:31;;;;;;;48.10;19.50;;;;;;;-6.03;92.15;98446.89;105301;1302;22730;-78
2022/12/18 08:24:02;;;;;;;42.90;19.90;;;;;;;-5.95;92.18;98442.60;105275;1296;24614;-78
2022/12/18 08:26:31;;;;;;;;;;;;;;;-5.90;92.05;98444.73;105319;1302;22441;-78
2022/12/18 08:29:01;;;;;;;37.70;18.70;;;;;;;-5.83;92.04;98448.11;105341;1296;22676;-78
2022/12/18 08:31:30;;;;;;;49.30;24.80;;;;;;;-5.68;92.00;98449.91;105326;1293;22480;-78
2022/12/18 08:34:00;;;;;;;49.80;25.00;;;;;;;-5.45;92.10;98451.88;105398;1300;22462;-78
2022/12/18 08:36:30;;;;;;;40.20;19.50;;;;;;;-5.27;92.10;98447.06;105452;1302;22419;-78
2022/12/18 08:39:00;;;;;;;38.20;18.80;;;;;;;-5.04;92.15;98447.45;105632;1295;22470;-78
2022/12/18 08:41:29;;;;;;;35.60;18.80;;;;;;;-4.62;92.47;98452.02;105570;1302;22703;-78
2022/12/18 08:46:46;;;;;;;36.40;19.50;;;;;;;-4.04;91.55;98449.11;105596;1288;22566;-78
2022/12/18 08:49:15;;;;;;;34.90;19.10;;;;;;;-4.00;90.88;98450.65;105548;1278;22468;-78
2022/12/18 08:51:47;;;;;;;35.50;18.30;;;;;;;-3.90;90.76;98452.67;105441;1288;22602;-78
2022/12/18 08:54:15;;;;;;;34.80;17.40;;;;;;;-3.69;90.80;98453.33;105567;1302;24189;-78
2022/12/18 08:56:44;;;;;;;34.70;18.20;;;;;;;-3.49;90.54;98451.09;105791;1277;25334;-79
2022/12/18 08:59:13;;;;;;;37.10;19.50;;;;;;;-3.33;90.19;98454.91;105548;1303;24724;-79
2022/12/18 09:01:41;;;;;;;32.30;17.30;;;;;;;-3.28;89.50;98455.13;105595;1303;22519;-79
2022/12/18 09:04:10;;;;;;;32.80;16.30;;;;;;;-3.35;88.80;98460.46;105586;1293;22476;-80
2022/12/18 09:06:39;;;;;;;34.10;17.00;;;;;;;-3.35;88.55;98466.00;105700;1288;25977;-79
2022/12/18 09:09:10;;;;;;;32.10;16.90;;;;;;;-3.26;88.35;98464.95;105602;1303;23350;-79
2022/12/18 09:11:37;;;;;;;;;;;;;;;-3.17;88.29;98469.86;105630;1295;22530;-79
2022/12/18 09:14:07;;;;;;;32.90;16.90;;;;;;;-3.09;87.90;98469.10;105789;1303;30485;-79
2022/12/18 09:16:36;;;;;;;26.50;14.40;;;;;;;-2.98;87.86;98469.77;105760;1296;22927;-79
2022/12/18 09:19:06;;;;;;;32.50;16.70;;;;;;;-2.96;87.49;98473.20;105595;1285;22594;-79
2022/12/18 09:21:40;;;;;;;33.70;17.90;;;;;;;-2.97;87.36;98475.73;105589;1291;24258;-79
2022/12/18 09:24:13;;;;;;;33.80;16.40;;;;;;;-2.92;87.46;98474.90;105572;1303;22477;-79
2022/12/18 09:26:43;;;;;;;41.50;18.00;;;;;;;-3.04;86.49;98478.45;105479;1287;23716;-79
2022/12/18 09:29:11;;;;;;;29.50;16.00;;;;;;;-3.17;86.02;98482.25;105436;1290;22480;-79
2022/12/18 09:31:40;;;;;;;34.30;17.20;;;;;;;-3.21;86.05;98483.73;105400;1281;22522;-79
2022/12/18 09:34:09;;;;;;;34.60;17.40;;;;;;;-3.13;86.19;98482.93;105456;1283;25377;-79
2022/12/18 09:36:38;;;;;;;32.80;16.40;;;;;;;-2.97;86.47;98483.83;105537;1302;24193;-79
2022/12/18 09:39:07;;;;;;;32.60;17.10;;;;;;;-2.72;86.69;98483.14;105557;1302;25278;-79
2022/12/18 09:41:45;;;;;;;31.10;16.60;;;;;;;-2.66;85.99;98484.37;105505;1302;22495;-79
2022/12/18 09:44:22;;;;;;;31.50;16.00;;;;;;;-2.62;85.95;98479.08;105488;1283;22466;-79
2022/12/18 09:46:58;;;;;;;28.00;14.80;;;;;;;-2.71;85.26;98475.40;105630;1303;22484;-79
2022/12/18 09:49:30;;;;;;;32.10;17.40;;;;;;;-2.83;84.87;98480.23;105782;1296;22492;-79
2022/12/18 09:52:04;;;;;;;30.50;16.30;;;;;;;-2.79;84.94;98475.73;105639;1288;23246;-79
2022/12/18 09:54:46;;;;;;;32.40;16.00;;;;;;;-2.81;84.50;98483.04;105584;1303;22476;-79
2022/12/18 09:57:18;;;;;;;29.30;14.80;;;;;;;-2.81;84.31;98485.25;105648;1286;22474;-79
2022/12/18 09:59:53;;;;;;;26.20;14.80;;;;;;;-2.85;83.97;98479.95;105775;1294;22493;-79
2022/12/18 10:02:27;;;;;;;26.10;13.90;;;;;;;-2.87;84.12;98483.95;105715;1298;22697;-79
2022/12/18 10:05:05;;;;;;;28.00;15.00;;;;;;;-2.72;84.49;98481.58;105490;1285;22483;-80
2022/12/18 10:07:44;;;;;;;25.70;15.20;;;;;;;-2.48;84.28;98482.54;105485;1281;22520;-80
2022/12/18 10:10:23;;;;;;;25.00;13.20;;;;;;;-2.34;84.28;98481.20;105530;1302;22457;-80
2022/12/18 10:13:02;;;;;;;29.70;15.90;;;;;;;-2.08;84.41;98481.77;105547;1302;22486;-80
2022/12/18 10:15:40;;;;;;;30.30;13.90;;;;;;;-1.75;84.29;98483.29;105509;1281;23515;-81
2022/12/18 10:18:22;;;;;;;35.30;17.70;;;;;;;-1.59;83.29;98483.92;105557;1279;22856;-81
2022/12/18 10:20:57;;;;;;;30.80;16.50;;;;;;;-1.37;83.13;98484.61;105507;1297;22470;-81
2022/12/18 10:23:33;;;;;;;33.80;17.50;;;;;;;-1.31;82.55;98481.70;105502;1302;23890;-81
2022/12/18 10:26:06;;;;;;;33.20;17.90;;;;;;;-1.44;81.16;98485.48;105471;1287;36557;-81
2022/12/18 10:28:38;;;;;;;31.70;17.40;;;;;;;-1.37;81.53;98480.23;105549;1285;22479;-81
2022/12/18 10:31:14;;;;;;;34.40;17.30;;;;;;;-1.39;81.05;98479.05;105545;1287;22469;-82
2022/12/18 10:33:45;;;;;;;31.70;16.60;;;;;;;-1.40;80.53;98475.86;105431;1303;22514;-82
2022/12/18 10:36:13;;;;;;;30.70;16.60;;;;;;;-1.47;80.31;98478.19;105520;1284;23656;-81
2022/12/18 10:38:42;;;;;;;26.90;15.30;;;;;;;-1.75;79.29;98482.41;105530;1282;24315;-81
2022/12/18 10:41:26;;;;;;;34.80;16.60;;;;;;;-1.86;79.47;98492.35;105510;1302;24126;-81
2022/12/18 10:44:16;;;;;;;33.50;18.40;;;;;;;-2.01;79.69;98490.52;105488;1302;22822;-81
2022/12/18 10:46:47;;;;;;;36.80;17.70;;;;;;;-2.03;80.07;98485.05;105776;1303;22537;-81
2022/12/18 10:49:25;;;;;;;32.60;16.70;;;;;;;-1.99;79.90;98476.83;105792;1301;22513;-81
2022/12/18 10:52:07;;;;;;;33.30;17.50;;;;;;;-2.08;79.23;98473.72;105555;1303;22474;-81
2022/12/18 10:54:38;;;;;;;32.10;16.30;;;;;;;-2.17;79.44;98471.31;105727;1296;26095;-81
2022/12/18 10:57:29;;;;;;;;;;;;;;;-2.18;78.93;98468.48;105703;1287;23948;-81
2022/12/18 11:00:01;;;;;;;33.30;17.20;;;;;;;-2.25;78.76;98469.40;105724;1281;22462;-81
2022/12/18 11:02:38;;;;;;;34.30;18.80;;;;;;;-2.41;78.40;98465.55;105694;1288;22453;-81
2022/12/18 11:05:26;;;;;;;33.10;16.50;;;;;;;-2.54;78.83;98462.54;105347;1305;22485;-81
2022/12/18 11:07:56;;;;;;;34.20;17.40;;;;;;;-2.58;78.86;98458.82;105505;1298;22693;-80
2022/12/18 11:10:29;;;;;;;33.10;18.50;;;;;;;-2.60;78.82;98460.89;105488;1298;22572;-80
2022/12/18 11:13:11;;;;;;;38.10;18.00;;;;;;;-2.62;79.02;98460.44;105395;1304;46741;-80
2022/12/18 11:15:42;;;;;;;34.20;18.10;;;;;;;-2.67;78.57;98454.63;105429;1305;33112;-81
2022/12/18 11:18:17;;;;;;;;;;;;;;;-2.71;78.77;98457.92;105456;1297;23229;-80
2022/12/18 11:20:53;;;;;;;32.70;17.20;;;;;;;-2.85;78.34;98457.41;105439;1296;22488;-80
2022/12/18 11:23:23;;;;;;;30.40;16.70;;;;;;;-2.88;78.80;98453.75;105425;1283;22507;-80
2022/12/18 11:25:55;;;;;;;33.10;14.50;;;;;;;-2.76;79.16;98452.58;105460;1281;53471;-80
2022/12/18 11:28:34;;;;;;;31.30;15.50;;;;;;;-2.72;78.71;98449.22;105465;1290;22540;-80
2022/12/18 11:31:21;;;;;;;36.50;19.20;;;;;;;-2.66;78.91;98445.95;105446;1290;23624;-81
2022/12/18 11:33:58;;;;;;;32.90;17.90;;;;;;;-2.66;78.28;98446.42;105376;1290;24383;-80